createdAt,value
2019-01-31T00:00:57.973Z,4.60
2019-01-31T00:01:57.985Z,4.70
2019-01-31T00:02:57.971Z,4.20
2019-01-31T00:03:57.936Z,4.20
2019-01-31T00:04:57.949Z,4.80
2019-01-31T00:05:57.916Z,4.70
2019-01-31T00:06:57.957Z,4.00
2019-01-31T00:07:57.894Z,4.60
2019-01-31T00:08:57.882Z,4.50
2019-01-31T00:09:57.871Z,4.20
2019-01-31T00:10:57.860Z,4.40
2019-01-31T00:11:57.872Z,4.00
2019-01-31T00:12:57.843Z,4.60
2019-01-31T00:13:57.828Z,4.00
2019-01-31T00:14:57.817Z,4.40
2019-01-31T00:15:57.806Z,4.40
2019-01-31T00:16:57.822Z,4.00
2019-01-31T00:17:57.783Z,4.80
2019-01-31T00:18:57.771Z,4.20
2019-01-31T00:19:57.761Z,4.10
2019-01-31T00:20:57.750Z,4.50
2019-01-31T00:21:57.763Z,4.60
2019-01-31T00:22:57.728Z,4.10
2019-01-31T00:23:57.721Z,4.30
2019-01-31T00:24:57.709Z,4.40
2019-01-31T00:25:57.794Z,4.20
2019-01-31T00:26:57.708Z,4.50
2019-01-31T00:27:57.677Z,4.30
2019-01-31T00:28:57.664Z,4.60
2019-01-31T00:29:57.652Z,4.30
2019-01-31T00:30:57.641Z,5.10
2019-01-31T00:31:57.654Z,5.00
2019-01-31T00:32:57.619Z,4.50
2019-01-31T00:33:57.609Z,4.40
2019-01-31T00:34:57.599Z,4.90
2019-01-31T00:35:57.586Z,4.50
2019-01-31T00:36:57.601Z,4.50
2019-01-31T00:37:57.564Z,4.00
2019-01-31T00:38:57.557Z,4.30
2019-01-31T00:39:57.542Z,4.20
2019-01-31T00:40:57.531Z,4.00
2019-01-31T00:41:57.570Z,4.10
2019-01-31T00:42:57.511Z,4.20
2019-01-31T00:43:57.501Z,4.60
2019-01-31T00:44:57.489Z,4.20
2019-01-31T00:45:57.477Z,3.70
2019-01-31T00:46:57.491Z,4.30
2019-01-31T00:47:57.456Z,3.80
2019-01-31T00:48:57.447Z,4.10
2019-01-31T00:49:57.433Z,4.40
2019-01-31T00:50:57.422Z,4.00
2019-01-31T00:51:57.438Z,3.40
2019-01-31T00:52:57.411Z,3.80
2019-01-31T00:53:57.389Z,3.50
2019-01-31T00:54:57.379Z,3.80
2019-01-31T00:55:57.394Z,3.80
2019-01-31T00:56:57.378Z,4.00
2019-01-31T00:57:57.345Z,3.90
2019-01-31T00:58:57.333Z,4.30
2019-01-31T00:59:57.323Z,4.30
2019-01-31T01:00:57.311Z,4.10
2019-01-31T01:01:57.325Z,3.90
2019-01-31T01:02:57.290Z,3.60
2019-01-31T01:03:57.280Z,3.70
2019-01-31T01:04:57.267Z,3.80
2019-01-31T01:05:57.257Z,3.70
2019-01-31T01:06:57.272Z,4.00
2019-01-31T01:07:57.235Z,4.50
2019-01-31T01:09:07.446Z,4.20
2019-01-31T01:09:58.214Z,4.70
2019-01-31T01:10:57.203Z,3.90
2019-01-31T01:11:57.219Z,4.20
2019-01-31T01:12:57.181Z,4.10
2019-01-31T01:13:57.173Z,4.20
2019-01-31T01:14:57.160Z,4.20
2019-01-31T01:15:57.148Z,4.50
2019-01-31T01:16:57.160Z,4.30
2019-01-31T01:17:57.127Z,4.30
2019-01-31T01:18:57.120Z,4.40
2019-01-31T01:19:57.105Z,4.70
2019-01-31T01:20:57.093Z,4.50
2019-01-31T01:21:57.109Z,4.60
2019-01-31T01:22:57.072Z,4.60
2019-01-31T01:23:57.061Z,4.40
2019-01-31T01:24:57.051Z,4.50
2019-01-31T01:25:57.039Z,4.70
2019-01-31T01:26:57.053Z,4.90
2019-01-31T01:27:57.019Z,4.80
2019-01-31T01:28:57.008Z,4.70
2019-01-31T01:29:56.996Z,5.30
2019-01-31T01:30:56.985Z,5.20
2019-01-31T01:31:56.975Z,4.70
2019-01-31T01:32:56.986Z,4.70
2019-01-31T01:33:56.951Z,5.50
2019-01-31T01:35:01.410Z,5.00
2019-01-31T01:35:56.930Z,5.00
2019-01-31T01:36:56.922Z,4.30
2019-01-31T01:37:56.931Z,5.10
2019-01-31T01:38:56.898Z,4.90
2019-01-31T01:39:56.886Z,4.70
2019-01-31T01:40:56.876Z,4.70
2019-01-31T01:41:56.866Z,5.00
2019-01-31T01:42:56.876Z,5.80
2019-01-31T01:43:56.843Z,4.90
2019-01-31T01:44:56.832Z,5.10
2019-01-31T01:45:56.823Z,4.70
2019-01-31T01:46:56.812Z,4.30
2019-01-31T01:47:56.828Z,4.60
2019-01-31T01:48:56.787Z,4.50
2019-01-31T01:49:56.776Z,4.30
2019-01-31T01:50:56.766Z,4.70
2019-01-31T01:51:56.756Z,4.70
2019-01-31T01:52:56.767Z,4.40
2019-01-31T01:53:56.736Z,5.20
2019-01-31T01:54:56.725Z,4.90
2019-01-31T01:55:56.712Z,4.80
2019-01-31T01:56:56.699Z,5.00
2019-01-31T01:57:56.713Z,5.00
2019-01-31T01:58:56.678Z,5.10
2019-01-31T01:59:56.667Z,5.20
2019-01-31T02:00:56.656Z,5.50
2019-01-31T02:01:56.646Z,5.90
2019-01-31T02:02:56.660Z,5.20
2019-01-31T02:03:56.624Z,5.70
2019-01-31T02:04:56.613Z,5.30
2019-01-31T02:05:56.602Z,5.50
2019-01-31T02:06:56.592Z,5.20
2019-01-31T02:07:56.605Z,5.10
2019-01-31T02:08:56.571Z,5.90
2019-01-31T02:09:56.559Z,5.40
2019-01-31T02:10:56.548Z,5.50
2019-01-31T02:11:56.537Z,5.60
2019-01-31T02:12:56.551Z,5.60
2019-01-31T02:13:56.515Z,5.40
2019-01-31T02:14:56.503Z,6.20
2019-01-31T02:15:56.491Z,6.00
2019-01-31T02:16:56.481Z,6.10
2019-01-31T02:17:56.493Z,6.20
2019-01-31T02:18:56.460Z,5.60
2019-01-31T02:19:56.450Z,5.40
2019-01-31T02:20:56.438Z,6.10
2019-01-31T02:21:56.428Z,5.60
2019-01-31T02:22:56.440Z,5.90
2019-01-31T02:23:56.405Z,5.80
2019-01-31T02:24:56.395Z,5.20
2019-01-31T02:25:56.383Z,5.50
2019-01-31T02:26:56.372Z,6.00
2019-01-31T02:27:56.386Z,5.90
2019-01-31T02:28:56.350Z,6.20
2019-01-31T02:29:56.342Z,6.00
2019-01-31T02:30:56.329Z,5.50
2019-01-31T02:31:56.318Z,6.20
2019-01-31T02:32:56.331Z,6.10
2019-01-31T02:33:56.295Z,6.70
2019-01-31T02:34:56.283Z,6.90
2019-01-31T02:35:56.274Z,6.60
2019-01-31T02:36:56.262Z,6.80
2019-01-31T02:37:56.279Z,6.90
2019-01-31T02:38:56.242Z,7.50
2019-01-31T02:39:56.232Z,7.10
2019-01-31T02:40:56.224Z,6.90
2019-01-31T02:41:56.209Z,6.80
2019-01-31T02:42:56.222Z,6.80
2019-01-31T02:43:56.186Z,6.30
2019-01-31T02:44:56.174Z,6.90
2019-01-31T02:45:56.163Z,6.90
2019-01-31T02:46:56.153Z,6.80
2019-01-31T02:47:56.172Z,7.40
2019-01-31T02:48:56.132Z,6.60
2019-01-31T02:49:56.121Z,6.50
2019-01-31T02:50:56.108Z,7.40
2019-01-31T02:51:56.099Z,6.70
2019-01-31T02:52:56.111Z,7.20
2019-01-31T02:53:56.076Z,6.90
2019-01-31T02:54:56.065Z,6.70
2019-01-31T02:55:56.053Z,6.90
2019-01-31T02:56:56.053Z,6.70
2019-01-31T02:57:56.059Z,6.50
2019-01-31T02:58:56.020Z,7.50
2019-01-31T02:59:56.010Z,6.10
2019-01-31T03:00:56.000Z,7.10
2019-01-31T03:01:55.988Z,7.50
2019-01-31T03:02:56.003Z,7.10
2019-01-31T03:03:55.967Z,6.80
2019-01-31T03:04:55.955Z,6.30
2019-01-31T03:05:55.943Z,6.00
2019-01-31T03:06:55.936Z,6.40
2019-01-31T03:07:55.947Z,6.10
2019-01-31T03:08:55.938Z,6.40
2019-01-31T03:09:55.899Z,6.60
2019-01-31T03:10:55.889Z,6.30
2019-01-31T03:11:55.876Z,6.90
2019-01-31T03:12:55.867Z,6.70
2019-01-31T03:13:55.985Z,6.60
2019-01-31T03:14:55.857Z,6.60
2019-01-31T03:15:55.837Z,6.60
2019-01-31T03:16:55.825Z,6.00
2019-01-31T03:17:55.812Z,6.70
2019-01-31T03:18:55.822Z,6.40
2019-01-31T03:19:55.786Z,6.70
2019-01-31T03:20:55.776Z,7.00
2019-01-31T03:21:55.766Z,6.90
2019-01-31T03:22:55.762Z,7.10
2019-01-31T03:23:55.767Z,6.70
2019-01-31T03:24:55.733Z,7.50
2019-01-31T03:25:55.720Z,6.50
2019-01-31T03:26:55.714Z,7.00
2019-01-31T03:27:55.701Z,7.10
2019-01-31T03:28:55.710Z,6.60
2019-01-31T03:29:55.679Z,6.20
2019-01-31T03:30:55.679Z,6.40
2019-01-31T03:31:55.655Z,6.60
2019-01-31T03:32:55.651Z,6.50
2019-01-31T03:33:55.657Z,6.70
2019-01-31T03:34:55.621Z,6.60
2019-01-31T03:35:55.610Z,6.90
2019-01-31T03:36:55.606Z,6.80
2019-01-31T03:37:55.586Z,6.60
2019-01-31T03:38:55.612Z,6.90
2019-01-31T03:40:06.265Z,6.90
2019-01-31T03:40:56.553Z,6.70
2019-01-31T03:41:55.543Z,6.50
2019-01-31T03:42:55.532Z,6.60
2019-01-31T03:43:55.543Z,7.20
2019-01-31T03:44:55.516Z,7.20
2019-01-31T03:45:55.497Z,7.20
2019-01-31T03:46:55.487Z,6.50
2019-01-31T03:47:55.479Z,6.20
2019-01-31T03:48:55.490Z,6.60
2019-01-31T03:49:55.453Z,6.60
2019-01-31T03:50:55.442Z,6.70
2019-01-31T03:51:55.432Z,6.80
2019-01-31T03:52:55.422Z,6.90
2019-01-31T03:53:55.432Z,7.90
2019-01-31T03:54:55.398Z,8.50
2019-01-31T03:55:55.387Z,8.10
2019-01-31T03:56:55.377Z,7.90
2019-01-31T03:57:55.364Z,7.50
2019-01-31T03:58:55.410Z,7.40
2019-01-31T03:59:55.344Z,7.60
2019-01-31T04:00:55.332Z,7.20
2019-01-31T04:01:55.319Z,7.20
2019-01-31T04:02:55.308Z,6.90
2019-01-31T04:03:55.326Z,6.60
2019-01-31T04:04:55.289Z,7.50
2019-01-31T04:05:55.275Z,6.90
2019-01-31T04:06:55.266Z,6.60
2019-01-31T04:07:55.252Z,6.40
2019-01-31T04:08:55.265Z,6.50
2019-01-31T04:09:55.233Z,6.20
2019-01-31T04:10:55.236Z,6.70
2019-01-31T04:11:55.209Z,6.70
2019-01-31T04:12:55.204Z,6.00
2019-01-31T04:13:55.208Z,6.60
2019-01-31T04:14:55.177Z,6.20
2019-01-31T04:15:55.163Z,7.00
2019-01-31T04:16:55.153Z,6.90
2019-01-31T04:17:55.141Z,6.80
2019-01-31T04:18:55.154Z,6.40
2019-01-31T04:19:55.120Z,7.20
2019-01-31T04:20:55.111Z,6.60
2019-01-31T04:21:55.100Z,6.80
2019-01-31T04:22:55.087Z,6.90
2019-01-31T04:23:55.182Z,7.20
2019-01-31T04:24:55.064Z,7.10
2019-01-31T04:25:55.054Z,7.40
2019-01-31T04:26:55.042Z,7.50
2019-01-31T04:27:55.032Z,7.30
2019-01-31T04:28:55.044Z,7.20
2019-01-31T04:29:55.009Z,7.00
2019-01-31T04:30:54.999Z,7.80
2019-01-31T04:31:54.988Z,8.60
2019-01-31T04:32:54.981Z,9.70
2019-01-31T04:33:54.993Z,9.00
2019-01-31T04:34:54.954Z,8.40
2019-01-31T04:35:54.942Z,7.40
2019-01-31T04:36:54.932Z,7.60
2019-01-31T04:37:54.922Z,7.30
2019-01-31T04:38:54.936Z,8.00
2019-01-31T04:39:54.899Z,7.90
2019-01-31T04:40:54.889Z,6.80
2019-01-31T04:41:54.878Z,7.50
2019-01-31T04:42:54.866Z,7.20
2019-01-31T04:43:54.879Z,8.10
2019-01-31T04:44:54.847Z,7.70
2019-01-31T04:45:54.834Z,7.40
2019-01-31T04:46:54.822Z,7.00
2019-01-31T04:47:56.417Z,7.20
2019-01-31T04:48:54.823Z,6.70
2019-01-31T04:49:54.789Z,6.70
2019-01-31T04:50:54.783Z,6.60
2019-01-31T04:51:54.766Z,6.60
2019-01-31T04:52:54.758Z,6.70
2019-01-31T04:53:54.754Z,7.00
2019-01-31T04:54:54.762Z,6.70
2019-01-31T04:55:54.724Z,6.50
2019-01-31T04:56:54.713Z,7.00
2019-01-31T04:57:54.706Z,6.80
2019-01-31T04:58:54.694Z,6.50
2019-01-31T04:59:54.709Z,7.40
2019-01-31T05:00:54.667Z,7.50
2019-01-31T05:01:54.657Z,7.00
2019-01-31T05:02:54.646Z,6.30
2019-01-31T05:03:54.643Z,7.20
2019-01-31T05:04:54.647Z,7.40
2019-01-31T05:05:54.613Z,7.30
2019-01-31T05:06:54.603Z,7.50
2019-01-31T05:07:54.594Z,7.10
2019-01-31T05:08:54.585Z,7.40
2019-01-31T05:09:54.591Z,7.50
2019-01-31T05:10:54.558Z,8.00
2019-01-31T05:11:54.553Z,7.70
2019-01-31T05:12:54.536Z,7.70
2019-01-31T05:13:54.525Z,8.30
2019-01-31T05:14:54.538Z,8.90
2019-01-31T05:15:54.562Z,8.80
2019-01-31T05:16:54.495Z,8.10
2019-01-31T05:17:54.480Z,8.90
2019-01-31T05:18:54.469Z,8.80
2019-01-31T05:19:54.481Z,10.30
2019-01-31T05:20:54.448Z,9.40
2019-01-31T05:21:54.438Z,9.70
2019-01-31T05:22:54.434Z,9.80
2019-01-31T05:23:54.416Z,9.80
2019-01-31T05:24:54.430Z,9.90
2019-01-31T05:25:54.393Z,10.20
2019-01-31T05:26:54.382Z,9.60
2019-01-31T05:27:54.371Z,9.40
2019-01-31T05:28:54.360Z,9.10
2019-01-31T05:29:54.377Z,9.50
2019-01-31T05:30:54.340Z,9.20
2019-01-31T05:31:54.329Z,8.90
2019-01-31T05:32:54.319Z,9.40
2019-01-31T05:33:54.329Z,9.50
2019-01-31T05:34:54.319Z,9.90
2019-01-31T05:35:54.288Z,9.10
2019-01-31T05:36:54.271Z,8.90
2019-01-31T05:37:54.260Z,8.90
2019-01-31T05:38:54.251Z,9.10
2019-01-31T05:39:54.265Z,9.30
2019-01-31T05:40:55.758Z,9.60
2019-01-31T05:41:54.217Z,9.20
2019-01-31T05:42:54.207Z,8.70
2019-01-31T05:43:54.194Z,8.80
2019-01-31T05:44:54.209Z,9.20
2019-01-31T05:45:54.173Z,8.80
2019-01-31T05:46:54.162Z,8.50
2019-01-31T05:47:54.158Z,8.80
2019-01-31T05:48:54.141Z,8.50
2019-01-31T05:49:54.152Z,8.30
2019-01-31T05:50:54.118Z,8.00
2019-01-31T05:51:54.109Z,8.70
2019-01-31T05:52:54.102Z,8.60
2019-01-31T05:53:54.086Z,8.10
2019-01-31T05:54:54.098Z,8.50
2019-01-31T05:55:54.063Z,8.00
2019-01-31T05:56:54.053Z,8.00
2019-01-31T05:57:54.042Z,7.90
2019-01-31T05:58:54.031Z,8.20
2019-01-31T05:59:54.049Z,8.70
2019-01-31T06:00:54.008Z,8.40
2019-01-31T06:01:53.999Z,8.90
2019-01-31T06:02:53.998Z,7.30
2019-01-31T06:03:53.976Z,8.00
2019-01-31T06:04:54.052Z,7.70
2019-01-31T06:05:53.952Z,8.50
2019-01-31T06:06:53.944Z,8.40
2019-01-31T06:07:53.936Z,7.80
2019-01-31T06:08:53.920Z,7.70
2019-01-31T06:09:53.937Z,7.70
2019-01-31T06:10:53.899Z,8.00
2019-01-31T06:11:53.888Z,8.10
2019-01-31T06:12:53.878Z,8.40
2019-01-31T06:13:53.867Z,7.80
2019-01-31T06:14:53.880Z,8.30
2019-01-31T06:15:53.848Z,8.20
2019-01-31T06:16:53.833Z,7.20
2019-01-31T06:17:53.823Z,7.30
2019-01-31T06:18:53.810Z,7.50
2019-01-31T06:19:53.823Z,7.00
2019-01-31T06:20:53.790Z,7.90
2019-01-31T06:21:53.781Z,7.30
2019-01-31T06:22:53.768Z,8.00
2019-01-31T06:23:53.756Z,7.80
2019-01-31T06:24:53.770Z,8.40
2019-01-31T06:25:53.736Z,7.80
2019-01-31T06:26:53.725Z,7.40
2019-01-31T06:27:53.713Z,7.10
2019-01-31T06:28:53.701Z,7.90
2019-01-31T06:29:53.713Z,8.00
2019-01-31T06:30:53.679Z,7.70
2019-01-31T06:31:53.669Z,8.10
2019-01-31T06:32:53.659Z,8.10
2019-01-31T06:33:53.650Z,7.70
2019-01-31T06:34:53.659Z,8.20
2019-01-31T06:35:53.626Z,8.60
2019-01-31T06:36:53.615Z,8.40
2019-01-31T06:37:53.603Z,8.30
2019-01-31T06:38:53.591Z,7.70
2019-01-31T06:39:53.583Z,8.10
2019-01-31T06:40:53.593Z,8.40
2019-01-31T06:41:53.560Z,8.40
2019-01-31T06:42:53.549Z,9.00
2019-01-31T06:43:53.537Z,8.30
2019-01-31T06:44:53.528Z,9.00
2019-01-31T06:45:56.267Z,8.50
2019-01-31T06:46:53.505Z,8.50
2019-01-31T06:47:53.493Z,8.10
2019-01-31T06:48:53.485Z,8.60
2019-01-31T06:49:53.475Z,8.60
2019-01-31T06:50:53.483Z,8.20
2019-01-31T06:51:53.451Z,8.10
2019-01-31T06:52:53.439Z,8.90
2019-01-31T06:53:53.431Z,8.30
2019-01-31T06:54:53.424Z,8.50
2019-01-31T06:55:53.431Z,9.30
2019-01-31T06:56:53.396Z,8.10
2019-01-31T06:57:53.384Z,8.50
2019-01-31T06:58:53.373Z,8.40
2019-01-31T06:59:53.367Z,9.00
2019-01-31T07:00:53.376Z,8.80
2019-01-31T07:01:53.341Z,8.60
2019-01-31T07:02:53.330Z,8.50
2019-01-31T07:03:53.319Z,8.50
2019-01-31T07:04:53.307Z,8.50
2019-01-31T07:05:53.320Z,8.20
2019-01-31T07:06:53.285Z,8.00
2019-01-31T07:07:53.275Z,8.30
2019-01-31T07:08:53.263Z,8.60
2019-01-31T07:09:53.259Z,8.90
2019-01-31T07:10:53.266Z,8.50
2019-01-31T07:11:53.230Z,8.30
2019-01-31T07:12:53.219Z,8.30
2019-01-31T07:13:53.209Z,8.50
2019-01-31T07:14:53.197Z,8.80
2019-01-31T07:15:53.210Z,8.70
2019-01-31T07:16:53.175Z,8.40
2019-01-31T07:17:53.165Z,8.50
2019-01-31T07:18:53.155Z,8.80
2019-01-31T07:19:53.144Z,8.20
2019-01-31T07:20:53.156Z,8.30
2019-01-31T07:21:53.121Z,8.40
2019-01-31T07:22:53.110Z,8.10
2019-01-31T07:23:53.100Z,7.80
2019-01-31T07:24:53.091Z,8.10
2019-01-31T07:25:53.099Z,8.50
2019-01-31T07:26:53.066Z,8.70
2019-01-31T07:27:53.058Z,8.50
2019-01-31T07:28:53.044Z,8.00
2019-01-31T07:29:53.034Z,8.50
2019-01-31T07:30:53.067Z,7.70
2019-01-31T07:31:53.014Z,9.50
2019-01-31T07:32:53.001Z,8.30
2019-01-31T07:33:52.989Z,7.80
2019-01-31T07:34:52.979Z,7.70
2019-01-31T07:35:52.992Z,7.50
2019-01-31T07:36:52.957Z,8.00
2019-01-31T07:37:53.185Z,8.10
2019-01-31T07:38:52.936Z,8.00
2019-01-31T07:39:52.952Z,7.40
2019-01-31T07:40:52.937Z,8.30
2019-01-31T07:41:52.902Z,8.30
2019-01-31T07:42:52.898Z,8.50
2019-01-31T07:43:52.880Z,8.60
2019-01-31T07:44:52.869Z,8.40
2019-01-31T07:45:52.882Z,8.60
2019-01-31T07:46:52.847Z,8.70
2019-01-31T07:47:52.836Z,8.80
2019-01-31T07:48:52.826Z,8.40
2019-01-31T07:49:52.817Z,8.00
2019-01-31T07:50:52.826Z,8.40
2019-01-31T07:51:52.793Z,8.50
2019-01-31T07:52:52.780Z,8.40
2019-01-31T07:53:52.771Z,7.70
2019-01-31T07:54:52.760Z,7.90
2019-01-31T07:55:52.774Z,8.30
2019-01-31T07:56:52.742Z,8.00
2019-01-31T07:57:52.726Z,7.50
2019-01-31T07:58:52.716Z,8.10
2019-01-31T07:59:52.704Z,7.40
2019-01-31T08:00:52.723Z,7.00
2019-01-31T08:01:52.683Z,7.60
2019-01-31T08:02:52.677Z,8.40
2019-01-31T08:04:02.152Z,7.90
2019-01-31T08:04:53.651Z,7.30
2019-01-31T08:05:52.665Z,8.30
2019-01-31T08:06:52.628Z,7.60
2019-01-31T08:07:52.617Z,7.10
2019-01-31T08:08:52.607Z,7.90
2019-01-31T08:09:52.595Z,7.30
2019-01-31T08:10:52.614Z,8.00
2019-01-31T08:11:53.034Z,7.00
2019-01-31T08:12:52.566Z,6.70
2019-01-31T08:13:52.554Z,6.80
2019-01-31T08:14:52.542Z,6.50
2019-01-31T08:15:52.552Z,6.60
2019-01-31T08:16:52.519Z,6.50
2019-01-31T08:17:52.511Z,6.30
2019-01-31T08:18:52.498Z,6.40
2019-01-31T08:19:52.488Z,6.70
2019-01-31T08:20:52.476Z,6.70
2019-01-31T08:21:52.487Z,6.30
2019-01-31T08:22:52.454Z,6.40
2019-01-31T08:23:52.442Z,6.40
2019-01-31T08:24:52.431Z,6.80
2019-01-31T08:25:52.422Z,6.60
2019-01-31T08:26:52.433Z,6.70
2019-01-31T08:27:52.401Z,6.60
2019-01-31T08:28:52.387Z,6.40
2019-01-31T08:29:52.379Z,6.80
2019-01-31T08:30:52.370Z,6.70
2019-01-31T08:31:52.378Z,7.40
2019-01-31T08:32:52.343Z,7.10
2019-01-31T08:33:52.332Z,6.80
2019-01-31T08:34:52.322Z,6.60
2019-01-31T08:35:52.313Z,7.50
2019-01-31T08:36:52.324Z,6.80
2019-01-31T08:37:52.288Z,7.40
2019-01-31T08:38:52.278Z,7.20
2019-01-31T08:39:52.268Z,7.70
2019-01-31T08:40:52.258Z,7.30
2019-01-31T08:42:03.278Z,7.30
2019-01-31T08:42:53.233Z,7.10
2019-01-31T08:43:52.224Z,7.40
2019-01-31T08:44:52.212Z,8.20
2019-01-31T08:45:52.201Z,7.80
2019-01-31T08:46:52.215Z,7.70
2019-01-31T08:47:52.180Z,7.40
2019-01-31T08:48:52.170Z,7.80
2019-01-31T08:49:52.158Z,7.50
2019-01-31T08:50:52.146Z,8.30
2019-01-31T08:51:52.158Z,8.60
2019-01-31T08:52:52.125Z,8.00
2019-01-31T08:53:52.115Z,8.80
2019-01-31T08:54:52.182Z,8.60
2019-01-31T08:55:52.091Z,8.20
2019-01-31T08:56:52.103Z,8.10
2019-01-31T08:57:52.069Z,9.30
2019-01-31T08:58:52.171Z,9.00
2019-01-31T08:59:52.054Z,9.10
2019-01-31T09:00:52.040Z,8.70
2019-01-31T09:01:52.053Z,8.60
2019-01-31T09:02:52.015Z,8.40
2019-01-31T09:03:52.004Z,8.90
2019-01-31T09:04:51.992Z,8.90
2019-01-31T09:05:51.986Z,7.60
2019-01-31T09:06:51.993Z,8.50
2019-01-31T09:07:51.961Z,8.50
2019-01-31T09:08:51.954Z,8.80
2019-01-31T09:09:51.940Z,8.90
2019-01-31T09:10:51.928Z,8.10
2019-01-31T09:11:51.939Z,8.20
2019-01-31T09:12:51.905Z,8.40
2019-01-31T09:13:51.894Z,8.60
2019-01-31T09:14:51.883Z,8.90
2019-01-31T09:15:51.872Z,8.50
2019-01-31T09:16:51.884Z,8.60
2019-01-31T09:17:51.850Z,9.10
2019-01-31T09:18:51.838Z,8.80
2019-01-31T09:19:51.828Z,9.00
2019-01-31T09:20:51.816Z,8.80
2019-01-31T09:21:51.832Z,9.40
2019-01-31T09:22:51.795Z,9.00
2019-01-31T09:23:51.784Z,9.40
2019-01-31T09:24:51.774Z,9.50
2019-01-31T09:25:51.767Z,9.30
2019-01-31T09:26:51.776Z,8.70
2019-01-31T09:27:51.741Z,9.30
2019-01-31T09:28:51.733Z,9.10
2019-01-31T09:29:54.215Z,8.80
2019-01-31T09:30:51.708Z,9.10
2019-01-31T09:31:51.721Z,9.40
2019-01-31T09:32:51.686Z,9.60
2019-01-31T09:33:51.676Z,10.10
2019-01-31T09:34:51.663Z,8.90
2019-01-31T09:35:51.663Z,9.60
2019-01-31T09:36:51.665Z,9.40
2019-01-31T09:37:51.631Z,9.30
2019-01-31T09:38:51.620Z,9.20
2019-01-31T09:39:51.609Z,8.90
2019-01-31T09:40:51.599Z,9.60
2019-01-31T09:41:51.610Z,8.30
2019-01-31T09:42:51.578Z,7.90
2019-01-31T09:43:51.565Z,8.70
2019-01-31T09:44:51.554Z,8.20
2019-01-31T09:45:51.543Z,10.20
2019-01-31T09:46:51.555Z,9.40
2019-01-31T09:47:51.522Z,8.40
2019-01-31T09:48:51.511Z,8.80
2019-01-31T09:49:51.500Z,8.60
2019-01-31T09:50:51.487Z,8.50
2019-01-31T09:51:51.499Z,8.20
2019-01-31T09:52:51.777Z,8.40
2019-01-31T09:53:51.454Z,8.10
2019-01-31T09:54:51.444Z,8.40
2019-01-31T09:55:51.432Z,8.30
2019-01-31T09:56:51.449Z,8.60
2019-01-31T09:57:51.412Z,9.40
2019-01-31T09:58:51.400Z,9.60
2019-01-31T09:59:51.389Z,9.80
2019-01-31T10:00:51.378Z,8.80
2019-01-31T10:01:52.612Z,8.70
2019-01-31T10:02:51.380Z,9.10
2019-01-31T10:03:51.352Z,9.60
2019-01-31T10:04:51.334Z,9.70
2019-01-31T10:05:51.323Z,9.90
2019-01-31T10:06:51.315Z,9.90
2019-01-31T10:07:51.324Z,10.50
2019-01-31T10:08:51.291Z,10.00
2019-01-31T10:09:51.279Z,9.80
2019-01-31T10:10:51.298Z,9.50
2019-01-31T10:11:51.260Z,10.30
2019-01-31T10:12:51.336Z,9.80
2019-01-31T10:13:51.236Z,9.60
2019-01-31T10:14:51.233Z,8.70
2019-01-31T10:15:51.300Z,8.70
2019-01-31T10:16:51.204Z,8.40
2019-01-31T10:17:51.214Z,8.30
2019-01-31T10:18:51.247Z,8.00
2019-01-31T10:19:51.192Z,8.60
2019-01-31T10:20:51.202Z,9.00
2019-01-31T10:21:51.198Z,8.80
2019-01-31T10:22:51.194Z,9.00
2019-01-31T10:23:51.126Z,8.40
2019-01-31T10:24:51.151Z,8.80
2019-01-31T10:25:51.103Z,8.40
2019-01-31T10:26:51.092Z,8.50
2019-01-31T10:27:51.103Z,8.20
2019-01-31T10:28:51.070Z,8.60
2019-01-31T10:29:53.078Z,8.90
2019-01-31T10:30:51.048Z,9.20
2019-01-31T10:31:51.036Z,8.60
2019-01-31T10:32:51.050Z,9.00
2019-01-31T10:33:51.015Z,8.40
2019-01-31T10:34:51.004Z,8.30
2019-01-31T10:35:50.995Z,8.40
2019-01-31T10:36:50.981Z,7.80
2019-01-31T10:37:50.994Z,8.20
2019-01-31T10:38:50.961Z,8.00
2019-01-31T10:39:50.985Z,8.70
2019-01-31T10:40:50.938Z,8.20
2019-01-31T10:41:50.927Z,8.30
2019-01-31T10:42:52.347Z,8.70
2019-01-31T10:43:50.906Z,9.00
2019-01-31T10:44:50.893Z,10.20
2019-01-31T10:45:50.883Z,9.90
2019-01-31T10:46:50.872Z,12.10
2019-01-31T10:47:50.894Z,12.10
2019-01-31T10:48:50.851Z,11.60
2019-01-31T10:49:50.839Z,11.30
2019-01-31T10:50:50.828Z,10.10
2019-01-31T10:51:50.817Z,9.40
2019-01-31T10:52:50.829Z,9.90
2019-01-31T10:53:50.794Z,8.90
2019-01-31T10:54:50.782Z,8.70
2019-01-31T10:55:50.771Z,8.90
2019-01-31T10:56:50.761Z,8.90
2019-01-31T10:57:50.772Z,9.00
2019-01-31T10:58:50.737Z,8.60
2019-01-31T10:59:50.727Z,8.80
2019-01-31T11:00:50.716Z,9.20
2019-01-31T11:01:50.705Z,8.30
2019-01-31T11:02:50.719Z,8.90
2019-01-31T11:03:50.682Z,9.00
2019-01-31T11:04:50.672Z,9.20
2019-01-31T11:05:50.666Z,9.50
2019-01-31T11:06:50.656Z,9.10
2019-01-31T11:07:50.661Z,8.80
2019-01-31T11:08:50.636Z,9.50
2019-01-31T11:09:50.614Z,8.60
2019-01-31T11:10:50.605Z,8.70
2019-01-31T11:11:50.594Z,8.70
2019-01-31T11:13:00.299Z,8.30
2019-01-31T11:13:52.901Z,8.40
2019-01-31T11:14:50.561Z,9.00
2019-01-31T11:15:50.550Z,8.70
2019-01-31T11:16:50.538Z,8.70
2019-01-31T11:17:50.552Z,9.30
2019-01-31T11:18:50.522Z,9.90
2019-01-31T11:19:50.506Z,9.60
2019-01-31T11:20:50.496Z,9.60
2019-01-31T11:21:50.484Z,9.70
2019-01-31T11:22:50.494Z,9.50
2019-01-31T11:23:50.462Z,9.70
2019-01-31T11:24:50.451Z,9.50
2019-01-31T11:25:50.445Z,9.30
2019-01-31T11:26:50.428Z,9.40
2019-01-31T11:27:50.442Z,9.50
2019-01-31T11:28:50.410Z,9.90
2019-01-31T11:29:50.393Z,10.20
2019-01-31T11:30:50.383Z,10.20
2019-01-31T11:31:50.376Z,10.80
2019-01-31T11:32:50.386Z,11.70
2019-01-31T11:33:50.350Z,10.00
2019-01-31T11:34:50.338Z,11.00
2019-01-31T11:35:50.330Z,11.60
2019-01-31T11:36:50.318Z,11.80
2019-01-31T11:37:50.328Z,11.90
2019-01-31T11:38:50.295Z,11.90
2019-01-31T11:39:50.284Z,11.40
2019-01-31T11:40:50.272Z,10.60
2019-01-31T11:41:50.261Z,11.20
2019-01-31T11:42:50.253Z,11.00
2019-01-31T11:43:50.263Z,9.70
2019-01-31T11:44:50.228Z,9.80
2019-01-31T11:45:50.217Z,11.10
2019-01-31T11:46:50.207Z,11.70
2019-01-31T11:47:50.218Z,11.70
2019-01-31T11:48:50.184Z,11.70
2019-01-31T11:49:50.176Z,11.30
2019-01-31T11:50:50.163Z,11.70
2019-01-31T11:51:50.150Z,11.00
2019-01-31T11:52:50.142Z,11.40
2019-01-31T11:53:50.153Z,11.60
2019-01-31T11:54:50.118Z,13.20
2019-01-31T11:55:50.107Z,12.90
2019-01-31T11:56:50.096Z,12.40
2019-01-31T11:57:50.085Z,12.40
2019-01-31T11:58:50.097Z,12.00
2019-01-31T11:59:50.063Z,12.30
2019-01-31T12:00:52.894Z,13.00
2019-01-31T12:01:50.040Z,13.10
2019-01-31T12:02:55.201Z,12.50
2019-01-31T12:03:51.016Z,12.20
2019-01-31T12:04:50.010Z,11.10
2019-01-31T12:05:49.995Z,11.80
2019-01-31T12:06:49.985Z,11.50
2019-01-31T12:07:49.973Z,12.00
2019-01-31T12:08:49.991Z,12.10
2019-01-31T12:09:49.952Z,12.40
2019-01-31T12:10:49.944Z,12.50
2019-01-31T12:11:49.929Z,12.50
2019-01-31T12:12:49.918Z,11.70
2019-01-31T12:13:49.930Z,12.80
2019-01-31T12:14:49.895Z,12.40
2019-01-31T12:15:49.885Z,12.80
2019-01-31T12:16:49.873Z,12.90
2019-01-31T12:17:49.863Z,14.10
2019-01-31T12:18:49.874Z,13.90
2019-01-31T12:19:49.840Z,13.40
2019-01-31T12:20:49.832Z,13.00
2019-01-31T12:21:49.820Z,11.80
2019-01-31T12:22:49.813Z,12.10
2019-01-31T12:23:49.820Z,13.00
2019-01-31T12:24:49.786Z,12.50
2019-01-31T12:25:49.775Z,12.40
2019-01-31T12:26:49.764Z,12.70
2019-01-31T12:27:49.756Z,12.50
2019-01-31T12:28:51.113Z,12.80
2019-01-31T12:29:49.730Z,12.30
2019-01-31T12:30:49.719Z,12.30
2019-01-31T12:31:49.708Z,12.60
2019-01-31T12:32:49.699Z,12.80
2019-01-31T12:33:49.710Z,13.00
2019-01-31T12:34:49.676Z,12.10
2019-01-31T12:35:49.664Z,12.40
2019-01-31T12:36:49.658Z,12.00
2019-01-31T12:37:49.641Z,12.40
2019-01-31T12:38:49.659Z,12.20
2019-01-31T12:39:52.118Z,12.60
2019-01-31T12:40:49.609Z,11.70
2019-01-31T12:41:49.599Z,12.70
2019-01-31T12:42:49.587Z,12.20
2019-01-31T12:43:49.602Z,12.70
2019-01-31T12:44:49.565Z,12.90
2019-01-31T12:45:49.560Z,13.90
2019-01-31T12:46:49.543Z,12.90
2019-01-31T12:47:49.533Z,12.50
2019-01-31T12:48:49.543Z,12.20
2019-01-31T12:49:49.509Z,11.50
2019-01-31T12:50:49.498Z,12.00
2019-01-31T12:51:49.490Z,12.40
2019-01-31T12:52:49.476Z,12.80
2019-01-31T12:53:49.489Z,12.80
2019-01-31T12:54:49.455Z,13.20
2019-01-31T12:55:49.442Z,13.70
2019-01-31T12:56:49.430Z,13.80
2019-01-31T12:57:49.421Z,13.30
2019-01-31T12:58:49.433Z,13.90
2019-01-31T12:59:49.397Z,13.40
2019-01-31T13:00:49.388Z,12.80
2019-01-31T13:01:49.376Z,13.30
2019-01-31T13:02:49.366Z,13.60
2019-01-31T13:03:49.376Z,12.40
2019-01-31T13:04:49.343Z,11.70
2019-01-31T13:05:49.353Z,11.40
2019-01-31T13:06:49.321Z,10.90
2019-01-31T13:07:49.309Z,10.80
2019-01-31T13:08:49.321Z,11.20
2019-01-31T13:09:49.287Z,12.20
2019-01-31T13:10:49.277Z,11.50
2019-01-31T13:11:49.265Z,11.60
2019-01-31T13:12:49.274Z,11.00
2019-01-31T13:13:49.266Z,10.70
2019-01-31T13:14:49.232Z,10.50